createdAt,value
2024-02-29T00:01:57.186Z,29.60
2024-02-29T00:04:27.448Z,30.38
2024-02-29T00:06:59.399Z,30.67
2024-02-29T00:09:27.413Z,27.42
2024-02-29T00:11:56.094Z,29.23
2024-02-29T00:14:24.148Z,29.60
2024-02-29T00:16:52.413Z,29.00
2024-02-29T00:19:21.584Z,32.30
2024-02-29T00:21:50.015Z,25.65
2024-02-29T00:24:17.871Z,30.13
2024-02-29T00:26:46.023Z,29.63
2024-02-29T00:29:14.000Z,31.40
2024-02-29T00:31:46.021Z,29.05
2024-02-29T00:34:14.242Z,29.95
2024-02-29T00:36:42.576Z,27.75
2024-02-29T00:39:14.870Z,26.25
2024-02-29T00:41:43.762Z,28.08
2024-02-29T00:44:12.078Z,27.35
2024-02-29T00:46:42.730Z,27.55
2024-02-29T00:49:10.882Z,28.63
2024-02-29T00:51:39.744Z,28.25
2024-02-29T00:54:07.662Z,27.90
2024-02-29T00:56:36.073Z,30.88
2024-02-29T00:59:04.131Z,30.17
2024-02-29T01:01:35.055Z,32.72
2024-02-29T01:04:03.200Z,34.33
2024-02-29T01:06:31.460Z,26.38
2024-02-29T01:08:59.538Z,29.52
2024-02-29T01:11:27.809Z,30.33
2024-02-29T01:13:55.793Z,28.10
2024-02-29T01:16:23.956Z,26.13
2024-02-29T01:18:52.070Z,31.90
2024-02-29T01:21:20.205Z,31.58
2024-02-29T01:23:48.155Z,30.75
2024-02-29T01:26:16.447Z,26.58
2024-02-29T01:28:45.747Z,24.08
2024-02-29T01:31:14.806Z,30.80
2024-02-29T01:33:42.894Z,24.83
2024-02-29T01:36:11.097Z,30.35
2024-02-29T01:38:39.944Z,29.42
2024-02-29T01:41:08.172Z,26.90
2024-02-29T01:43:36.511Z,34.67
2024-02-29T01:46:11.373Z,29.15
2024-02-29T01:48:40.126Z,32.35
2024-02-29T01:51:10.047Z,27.17
2024-02-29T01:53:39.186Z,28.13
2024-02-29T01:56:08.331Z,34.20
2024-02-29T01:58:37.212Z,33.65
2024-02-29T02:01:05.879Z,32.50
2024-02-29T02:03:34.867Z,33.83
2024-02-29T02:06:03.037Z,29.55
2024-02-29T02:08:33.297Z,27.85
2024-02-29T02:11:01.930Z,32.35
2024-02-29T02:13:29.961Z,30.77
2024-02-29T02:15:58.261Z,27.10
2024-02-29T02:18:26.245Z,31.67
2024-02-29T02:20:57.607Z,32.13
2024-02-29T02:23:25.558Z,31.63
2024-02-29T02:25:58.965Z,25.38
2024-02-29T02:28:27.262Z,31.15
2024-02-29T02:30:55.581Z,35.80
2024-02-29T02:33:23.569Z,29.83
2024-02-29T02:35:51.728Z,31.40
2024-02-29T02:38:19.662Z,34.35
2024-02-29T02:40:47.829Z,32.08
2024-02-29T02:43:18.610Z,30.98
2024-02-29T02:45:47.006Z,29.98
2024-02-29T02:48:15.948Z,27.10
2024-02-29T02:50:44.785Z,31.60
2024-02-29T02:53:12.703Z,38.30
2024-02-29T02:55:41.106Z,25.58
2024-02-29T02:58:08.981Z,29.77
2024-02-29T03:00:37.291Z,31.50
2024-02-29T03:03:05.276Z,30.08
2024-02-29T03:05:33.746Z,33.15
2024-02-29T03:08:01.961Z,33.70
2024-02-29T03:10:30.187Z,33.15
2024-02-29T03:12:58.027Z,37.47
2024-02-29T03:15:26.255Z,35.03
2024-02-29T03:17:57.431Z,31.20
2024-02-29T03:20:25.684Z,32.78
2024-02-29T03:22:53.471Z,32.08
2024-02-29T03:25:21.662Z,29.88
2024-02-29T03:27:53.195Z,32.15
2024-02-29T03:30:21.461Z,30.95
2024-02-29T03:32:49.399Z,31.75
2024-02-29T03:35:17.811Z,30.17
2024-02-29T03:37:45.595Z,33.53
2024-02-29T03:40:14.060Z,28.38
2024-02-29T03:42:44.335Z,32.83
2024-02-29T03:45:12.643Z,34.20
2024-02-29T03:47:40.651Z,32.47
2024-02-29T03:50:11.667Z,31.95
2024-02-29T03:52:40.093Z,30.90
2024-02-29T03:55:09.582Z,31.35
2024-02-29T03:57:37.683Z,30.60
2024-02-29T04:00:12.606Z,33.15
2024-02-29T04:02:43.643Z,35.03
2024-02-29T04:05:12.051Z,36.40
2024-02-29T04:07:44.157Z,37.17
2024-02-29T04:10:12.788Z,37.30
2024-02-29T04:12:40.808Z,34.55
2024-02-29T04:15:09.843Z,38.40
2024-02-29T04:17:37.685Z,34.90
2024-02-29T04:20:07.261Z,31.83
2024-02-29T04:22:35.302Z,33.03
2024-02-29T04:25:03.809Z,30.70
2024-02-29T04:27:31.811Z,36.95
2024-02-29T04:30:00.237Z,33.10
2024-02-29T04:32:28.038Z,31.90
2024-02-29T04:34:56.416Z,34.72
2024-02-29T04:37:24.222Z,41.60
2024-02-29T04:39:52.610Z,32.83
2024-02-29T04:42:23.439Z,34.83
2024-02-29T04:44:51.611Z,31.40
2024-02-29T04:47:20.192Z,39.78
2024-02-29T04:49:48.730Z,35.55
2024-02-29T04:52:16.764Z,36.83
2024-02-29T04:54:45.282Z,39.47
2024-02-29T04:57:13.325Z,36.75
2024-02-29T04:59:41.781Z,37.10
2024-02-29T05:02:11.266Z,43.42
2024-02-29T05:04:39.468Z,40.83
2024-02-29T05:07:07.428Z,37.38
2024-02-29T05:09:35.706Z,37.95
2024-02-29T05:12:03.735Z,42.88
2024-02-29T05:20:16.215Z,38.22
2024-02-29T05:23:05.026Z,44.65
2024-02-29T05:25:33.471Z,38.28
2024-02-29T05:28:03.171Z,38.65
2024-02-29T05:30:31.310Z,41.58
2024-02-29T05:32:59.558Z,41.20
2024-02-29T05:35:27.807Z,37.63
2024-02-29T05:37:58.452Z,36.67
2024-02-29T05:40:30.964Z,42.60
2024-02-29T05:42:59.258Z,38.30
2024-02-29T05:45:27.174Z,34.85
2024-02-29T05:47:55.495Z,36.15
2024-02-29T05:50:23.453Z,38.60
2024-02-29T05:52:51.876Z,38.28
2024-02-29T05:55:21.901Z,43.55
2024-02-29T05:57:50.248Z,40.92
2024-02-29T06:00:23.558Z,37.08
2024-02-29T06:02:53.204Z,39.63
2024-02-29T06:05:21.514Z,38.70
2024-02-29T06:07:49.730Z,39.80
2024-02-29T06:10:20.861Z,44.63
2024-02-29T06:12:49.336Z,40.55
2024-02-29T06:15:17.299Z,41.50
2024-02-29T06:17:45.715Z,37.88
2024-02-29T06:20:14.296Z,34.65
2024-02-29T06:22:43.262Z,35.83
2024-02-29T06:25:11.785Z,41.38
2024-02-29T06:27:41.031Z,48.00
2024-02-29T06:30:10.404Z,40.33
2024-02-29T06:32:42.020Z,45.42
2024-02-29T06:35:10.672Z,46.65
2024-02-29T06:37:43.053Z,49.90
2024-02-29T06:40:13.159Z,37.45
2024-02-29T06:42:42.551Z,45.65
2024-02-29T06:45:11.847Z,40.42
2024-02-29T06:47:44.317Z,43.30
2024-02-29T06:50:13.729Z,38.60
2024-02-29T06:52:42.306Z,40.42
2024-02-29T06:55:10.718Z,39.38
2024-02-29T06:57:39.343Z,30.95
2024-02-29T07:00:07.892Z,40.03
2024-02-29T07:02:36.237Z,37.08
2024-02-29T07:05:04.627Z,42.35
2024-02-29T07:07:33.320Z,39.63
2024-02-29T07:10:01.528Z,41.17
2024-02-29T07:12:30.094Z,36.35
2024-02-29T07:14:58.251Z,35.35
2024-02-29T07:17:26.440Z,38.40
2024-02-29T07:19:54.441Z,33.15
2024-02-29T07:22:22.776Z,32.63
2024-02-29T07:24:50.757Z,33.20
2024-02-29T07:27:19.008Z,33.75
2024-02-29T07:29:48.622Z,30.25
2024-02-29T07:32:16.813Z,33.90
2024-02-29T07:34:44.712Z,33.15
2024-02-29T07:37:12.967Z,31.38
2024-02-29T07:39:41.053Z,31.40
2024-02-29T07:42:10.566Z,31.42
2024-02-29T07:44:38.592Z,35.30
2024-02-29T07:47:06.839Z,30.25
2024-02-29T07:49:34.685Z,37.35
2024-02-29T07:52:03.037Z,35.22
2024-02-29T07:54:33.706Z,37.92
2024-02-29T07:57:05.772Z,29.25
2024-02-29T07:59:33.838Z,32.70
2024-02-29T08:02:02.463Z,33.03
2024-02-29T08:04:30.549Z,36.38
2024-02-29T08:06:58.773Z,27.85
2024-02-29T08:09:26.793Z,28.05
2024-02-29T08:11:55.987Z,35.45
2024-02-29T08:14:25.731Z,29.95
2024-02-29T08:16:54.290Z,30.73
2024-02-29T08:19:22.643Z,30.90
2024-02-29T08:21:53.818Z,29.65
2024-02-29T08:24:22.086Z,28.40
2024-02-29T08:26:50.308Z,32.45
2024-02-29T08:29:21.128Z,32.25
2024-02-29T08:31:49.702Z,30.65
2024-02-29T08:34:17.780Z,28.45
2024-02-29T08:36:46.438Z,32.40
2024-02-29T08:39:14.462Z,31.13
2024-02-29T08:41:42.745Z,32.95
2024-02-29T08:44:10.615Z,31.55
2024-02-29T08:46:39.019Z,28.90
2024-02-29T08:49:08.919Z,29.73
2024-02-29T08:51:37.458Z,32.10
2024-02-29T08:54:07.536Z,33.75
2024-02-29T08:56:36.625Z,29.27
2024-02-29T08:59:04.488Z,30.95
2024-02-29T09:01:32.900Z,32.17
2024-02-29T09:04:01.015Z,33.55
2024-02-29T09:06:39.899Z,35.38
2024-02-29T09:09:09.830Z,33.58
2024-02-29T09:11:39.470Z,31.52
2024-02-29T09:14:07.426Z,32.92
2024-02-29T09:16:35.721Z,36.40
2024-02-29T09:19:04.458Z,36.35
2024-02-29T09:21:33.989Z,36.47
2024-02-29T09:24:01.966Z,30.35
2024-02-29T09:26:30.320Z,33.55
2024-02-29T09:28:58.241Z,33.25
2024-02-29T09:31:26.588Z,34.45
2024-02-29T09:33:55.126Z,30.92
2024-02-29T09:36:23.339Z,37.83
2024-02-29T09:38:51.265Z,32.15
2024-02-29T09:43:54.927Z,32.92
2024-02-29T09:46:23.652Z,36.75
2024-02-29T09:48:53.692Z,34.00
2024-02-29T09:51:23.177Z,30.95
2024-02-29T09:53:54.066Z,34.03
2024-02-29T09:56:24.661Z,34.78
2024-02-29T09:58:53.041Z,32.08
2024-02-29T10:01:21.653Z,32.20
2024-02-29T10:03:50.256Z,34.25
2024-02-29T10:06:18.541Z,31.85
2024-02-29T10:08:46.997Z,31.83
2024-02-29T10:11:15.024Z,35.40
2024-02-29T10:13:43.471Z,34.92
2024-02-29T10:16:15.262Z,33.30
2024-02-29T10:18:43.740Z,32.25
2024-02-29T10:21:12.805Z,26.60
2024-02-29T10:23:41.591Z,27.50
2024-02-29T10:26:10.436Z,31.48
2024-02-29T10:28:38.721Z,33.78
2024-02-29T10:31:06.620Z,31.83
2024-02-29T10:33:39.925Z,29.77
2024-02-29T10:36:14.884Z,28.60
2024-02-29T10:38:43.192Z,30.40
2024-02-29T10:41:12.473Z,28.65
2024-02-29T10:43:45.342Z,35.08
2024-02-29T10:46:16.246Z,32.28
2024-02-29T10:48:59.440Z,37.53
2024-02-29T10:51:36.994Z,33.58
2024-02-29T10:54:16.464Z,33.47
2024-02-29T10:56:47.875Z,30.30
2024-02-29T10:59:20.559Z,30.75
2024-02-29T11:01:49.633Z,27.77
2024-02-29T11:04:18.173Z,27.58
2024-02-29T11:06:48.806Z,30.83
2024-02-29T11:09:28.590Z,26.33
2024-02-29T11:12:15.037Z,29.92
2024-02-29T11:14:49.630Z,26.58
2024-02-29T11:17:18.512Z,29.20
2024-02-29T11:19:57.770Z,27.08
2024-02-29T11:22:37.373Z,26.85
2024-02-29T11:25:12.416Z,29.40
2024-02-29T11:27:54.675Z,29.90
2024-02-29T11:30:25.638Z,26.05
2024-02-29T11:32:54.119Z,27.05
2024-02-29T11:35:23.261Z,30.80
2024-02-29T11:37:54.947Z,25.77
2024-02-29T11:40:25.734Z,28.05
2024-02-29T11:42:58.773Z,29.65
2024-02-29T11:45:27.032Z,30.00
2024-02-29T11:47:55.029Z,29.85
2024-02-29T11:50:23.464Z,23.35
2024-02-29T11:52:53.529Z,29.25
2024-02-29T11:55:22.109Z,28.98
2024-02-29T11:57:50.330Z,25.40
2024-02-29T12:00:18.924Z,27.42
2024-02-29T12:02:47.081Z,33.40
2024-02-29T12:05:17.845Z,25.63
2024-02-29T12:07:46.989Z,28.70
2024-02-29T12:10:16.839Z,30.55
2024-02-29T12:12:46.190Z,27.83
2024-02-29T12:15:16.020Z,33.22
2024-02-29T12:17:44.874Z,28.30
2024-02-29T12:20:18.498Z,28.95
2024-02-29T12:22:50.308Z,26.73
2024-02-29T12:25:23.062Z,26.50
2024-02-29T12:27:51.229Z,27.65
2024-02-29T12:30:21.748Z,26.23
2024-02-29T12:32:55.486Z,31.05
2024-02-29T12:35:28.676Z,29.42
2024-02-29T12:37:57.101Z,26.98
2024-02-29T12:40:27.304Z,32.45
2024-02-29T12:42:55.531Z,27.27
2024-02-29T12:45:24.013Z,32.13
2024-02-29T12:47:52.072Z,27.92
2024-02-29T12:50:22.520Z,29.48
2024-02-29T12:52:55.526Z,31.25
2024-02-29T12:55:24.311Z,29.27
2024-02-29T12:57:52.285Z,29.33
2024-02-29T13:00:26.057Z,29.65
2024-02-29T13:02:54.282Z,29.25
2024-02-29T13:05:22.674Z,27.75
2024-02-29T13:07:51.427Z,28.23
2024-02-29T13:10:21.184Z,29.50
2024-02-29T13:12:54.468Z,27.92
2024-02-29T13:15:25.844Z,26.20
2024-02-29T13:17:53.892Z,29.25
2024-02-29T13:20:22.168Z,30.77
2024-02-29T13:22:50.068Z,27.65
2024-02-29T13:25:18.545Z,26.45
2024-02-29T13:27:46.461Z,31.73
2024-02-29T13:30:16.050Z,26.63
2024-02-29T13:32:45.441Z,28.42
2024-02-29T13:35:13.831Z,27.30
2024-02-29T13:37:42.643Z,30.73
2024-02-29T13:40:12.017Z,27.42
2024-02-29T13:42:45.342Z,29.58
2024-02-29T13:45:14.357Z,27.25
2024-02-29T13:47:52.350Z,28.98
2024-02-29T13:50:26.707Z,31.48
2024-02-29T13:52:57.352Z,29.20
2024-02-29T13:55:34.406Z,29.65
2024-02-29T13:58:02.453Z,28.40
2024-02-29T14:00:32.450Z,29.38
2024-02-29T14:03:00.435Z,30.13
2024-02-29T14:05:28.728Z,28.30
2024-02-29T14:07:57.289Z,29.88
2024-02-29T14:10:25.689Z,28.33
2024-02-29T14:12:53.840Z,26.25
2024-02-29T14:15:23.477Z,27.63
2024-02-29T14:17:52.024Z,25.67
2024-02-29T14:20:21.434Z,29.08
2024-02-29T14:22:49.471Z,32.42
2024-02-29T14:25:36.416Z,32.95
2024-02-29T14:28:04.979Z,35.28
2024-02-29T14:30:40.945Z,34.53
2024-02-29T14:33:58.606Z,32.45
2024-02-29T14:39:42.895Z,32.05
2024-02-29T14:39:57.658Z,41.25
2024-02-29T14:42:26.187Z,36.35
2024-02-29T14:44:54.556Z,30.38
2024-02-29T14:47:23.493Z,34.67
2024-02-29T14:49:52.552Z,29.98
2024-02-29T14:52:20.676Z,29.13
2024-02-29T14:54:49.748Z,31.38
2024-02-29T14:57:17.758Z,36.10
2024-02-29T14:59:47.987Z,31.77
2024-02-29T15:02:16.523Z,32.13
2024-02-29T15:04:45.735Z,31.35
2024-02-29T15:07:14.302Z,31.42
2024-02-29T15:09:42.704Z,30.95
2024-02-29T15:12:10.654Z,30.30
2024-02-29T15:14:39.071Z,33.42
2024-02-29T15:17:06.981Z,38.05
2024-02-29T15:19:36.105Z,33.92
2024-02-29T15:22:04.419Z,39.35
2024-02-29T15:24:32.905Z,34.55
2024-02-29T15:27:01.018Z,32.25
2024-02-29T15:29:29.532Z,30.65
2024-02-29T15:31:57.367Z,39.80
2024-02-29T15:34:25.916Z,33.25
2024-02-29T15:36:55.127Z,34.78
2024-02-29T15:39:23.666Z,32.63
2024-02-29T15:41:51.700Z,34.60
2024-02-29T15:44:20.132Z,32.08
2024-02-29T15:46:48.079Z,30.85
2024-02-29T15:49:16.494Z,30.58
2024-02-29T15:51:44.462Z,31.92
2024-02-29T15:54:12.753Z,31.58
2024-02-29T15:56:40.754Z,30.30
2024-02-29T15:59:10.640Z,33.03
2024-02-29T16:01:38.835Z,30.75
2024-02-29T16:04:07.436Z,31.65
2024-02-29T16:06:35.386Z,40.25
2024-02-29T16:09:03.689Z,39.17
2024-02-29T16:11:31.670Z,35.60
2024-02-29T16:13:59.986Z,30.95
2024-02-29T16:16:29.425Z,32.38
2024-02-29T16:18:57.818Z,29.85
2024-02-29T16:21:28.132Z,30.10
2024-02-29T16:23:56.791Z,31.92
2024-02-29T16:26:24.902Z,36.83
2024-02-29T16:28:55.402Z,32.90
2024-02-29T16:31:23.416Z,35.88
2024-02-29T16:33:51.709Z,37.10
2024-02-29T16:36:20.353Z,41.42
2024-02-29T16:38:48.608Z,36.90
2024-02-29T16:41:16.512Z,32.47
2024-02-29T16:43:44.881Z,31.67
2024-02-29T16:46:13.176Z,34.80
2024-02-29T16:48:41.864Z,34.03
2024-02-29T16:51:09.907Z,37.92
2024-02-29T16:53:38.077Z,33.17
2024-02-29T16:56:06.117Z,27.27
2024-02-29T16:58:34.518Z,31.08
2024-02-29T17:01:05.585Z,31.08
2024-02-29T17:03:39.053Z,29.23
2024-02-29T17:06:10.472Z,30.25
2024-02-29T17:08:38.912Z,28.45
2024-02-29T17:11:07.822Z,30.33
2024-02-29T17:13:44.730Z,32.15
2024-02-29T17:16:14.414Z,33.28
2024-02-29T17:18:43.512Z,34.72
2024-02-29T17:21:12.145Z,37.63
2024-02-29T17:23:40.693Z,38.90
2024-02-29T17:26:21.776Z,36.38
2024-02-29T17:28:52.812Z,38.50
2024-02-29T17:31:24.106Z,33.45
2024-02-29T17:33:53.112Z,36.17
2024-02-29T17:36:21.018Z,36.42
2024-02-29T17:38:49.395Z,34.60
2024-02-29T17:41:17.720Z,29.50
2024-02-29T17:43:46.087Z,34.15
2024-02-29T17:46:14.082Z,35.92
2024-02-29T17:48:44.572Z,30.80
2024-02-29T17:51:12.513Z,30.75
2024-02-29T17:53:41.630Z,28.95
2024-02-29T17:56:09.610Z,31.08
2024-02-29T17:58:38.150Z,28.95
2024-02-29T18:03:52.514Z,34.53
2024-02-29T18:06:20.525Z,28.23
2024-02-29T18:08:49.860Z,33.17
2024-02-29T18:11:18.016Z,27.90
2024-02-29T18:13:46.280Z,27.67
2024-02-29T18:16:15.526Z,29.85
2024-02-29T18:18:44.571Z,25.25
2024-02-29T18:21:19.812Z,32.47
2024-02-29T18:23:48.402Z,31.80
2024-02-29T18:26:16.639Z,32.03
2024-02-29T18:28:45.032Z,37.75
2024-02-29T18:31:13.590Z,36.28
2024-02-29T18:33:42.674Z,26.95
2024-02-29T18:36:11.164Z,35.63
2024-02-29T18:38:39.493Z,30.15
2024-02-29T18:41:07.361Z,31.40
2024-02-29T18:43:38.158Z,30.27
2024-02-29T18:46:07.158Z,28.77
2024-02-29T18:48:41.025Z,33.03
2024-02-29T18:51:10.165Z,31.83
2024-02-29T18:54:04.408Z,32.47
2024-02-29T18:56:32.767Z,29.55
2024-02-29T18:59:01.118Z,30.63
2024-02-29T19:01:29.145Z,27.35
2024-02-29T19:03:58.587Z,29.75
2024-02-29T19:06:26.971Z,29.85
2024-02-29T19:08:55.147Z,29.60
2024-02-29T19:11:23.366Z,29.65
2024-02-29T19:13:52.088Z,28.50
2024-02-29T19:16:20.739Z,34.15
2024-02-29T19:18:49.191Z,25.45
2024-02-29T19:21:17.235Z,28.83
2024-02-29T19:23:45.724Z,28.92
2024-02-29T19:26:14.580Z,27.30
2024-02-29T19:28:48.939Z,33.67
